Terminal Aerodrome Forecast
Issued by NWS Cleveland, OH

Home | Current Version | Previous Version | Graphics & Text | Print | Product List | Glossary Off
Versions: 1 2 3 4 5 6 7 8 9 10 11 12 13 14 15 16 17 18 19 20 21 22

000
FTUS41 KCLE 020500
TAFERI
TAF
KERI 020527Z 0206/0306 26010KT P6SM OVC012
      TEMPO 0206/0210 5SM BR BKN008
     FM021500 28011KT P6SM BKN025
     FM021800 26011KT P6SM SCT025 BKN045
     FM022200 28011KT P6SM SCT045 BKN250
     FM030200 VRB03KT P6SM BKN250=

USA.gov is the U.S. government's official web portal to all federal, state and local government web resources and services.